Slaughter Beach, Delaware
Current Conditions -  °F | °C
As of 11:58 PM on Monday 20 Oct 2014 (Local Time) from KDOV Reporting Station
Clear Clear  
Wind Chill: 53°   Ceiling: Unl
Heat Index: 53°   Visibility: 9mi
Dew Point: 46°   Wind: 6mph
Humidity: 76%   Direction: 150°SSE
Pressure: 29.94"   Gusts: NA
Location:  38.9593°N, 75.405°W
Report Text: KDOV 210358Z AUTO 15005KT 9SM R19/5500FT CLR 12/08 A2994 RMK AO2 SLPNO T01180077
Loading
Personal Weather Stations






























Interactive Weather Map
Tropical Storm Tracking
New forecast layout! Learn more

10-Day Weather Forecast

Advertisements
Track Severe Weather on mobile